Time;durP1;ratioP1;P1;durP2;ratioP2;P2;SDS_P1;SDS_P2;PMS_P1;PMS_P2;Temp;Humidity;BMP_temperature;BMP_pressure;BME280_temperature;BME280_humidity;BME280_pressure;Samples;Min_cycle;Max_cycle;Signal;HPM_P1;HPM_P2
2023/10/26 00:00:59;;;;;;;4.73;4.33;;;10.30;99.90;;;;;;5033111;28;20449;-63
2023/10/26 00:03:27;;;;;;;4.70;4.30;;;10.30;99.90;;;;;;5033049;28;20437;-62
2023/10/26 00:05:54;;;;;;;4.97;4.57;;;10.30;99.90;;;;;;5033061;28;20268;-63
2023/10/26 00:08:21;;;;;;;5.80;5.00;;;10.30;99.90;;;;;;5033623;28;20204;-63
2023/10/26 00:10:47;;;;;;;5.93;5.32;;;10.30;99.90;;;;;;5033516;28;20190;-62
2023/10/26 00:13:14;;;;;;;6.00;5.28;;;10.30;99.90;;;;;;5033416;28;20232;-62
2023/10/26 00:15:41;;;;;;;7.00;5.60;;;10.30;99.90;;;;;;5033223;28;20238;-63
2023/10/26 00:18:08;;;;;;;6.50;5.90;;;10.30;99.90;;;;;;5033353;28;20491;-62
2023/10/26 00:20:36;;;;;;;6.33;5.73;;;10.30;99.90;;;;;;5033436;28;20441;-62
2023/10/26 00:23:03;;;;;;;7.23;6.53;;;10.30;99.90;;;;;;5033586;28;20449;-64
2023/10/26 00:25:29;;;;;;;7.00;6.30;;;10.30;99.90;;;;;;5032824;28;20473;-63
2023/10/26 00:27:56;;;;;;;7.80;7.10;;;10.30;99.90;;;;;;5034831;28;20217;-63
2023/10/26 00:30:24;;;;;;;8.45;7.38;;;10.30;99.90;;;;;;5037262;28;20467;-63
2023/10/26 00:32:50;;;;;;;8.10;7.30;;;10.30;99.90;;;;;;5037170;28;20205;-64
2023/10/26 00:35:17;;;;;;;9.33;8.27;;;10.30;99.90;;;;;;5037330;28;20472;-63
2023/10/26 00:37:46;;;;;;;7.83;6.87;;;10.30;99.90;;;;;;5037291;28;20619;-63
2023/10/26 00:40:13;;;;;;;7.50;6.80;;;10.30;99.90;;;;;;5037145;28;20449;-63
2023/10/26 00:42:40;;;;;;;7.03;6.35;;;10.30;99.90;;;;;;5036877;28;20437;-64
2023/10/26 00:45:07;;;;;;;7.20;6.50;;;10.30;99.90;;;;;;5036542;28;20233;-63
2023/10/26 00:47:35;;;;;;;8.30;7.43;;;10.30;99.90;;;;;;5036759;28;20769;-63
2023/10/26 00:50:02;;;;;;;8.20;7.40;;;10.30;99.90;;;;;;5036777;28;20535;-64
2023/10/26 00:52:30;;;;;;;8.30;7.43;;;10.30;99.90;;;;;;5036657;28;20514;-64
2023/10/26 00:54:58;;;;;;;8.98;7.20;;;10.30;99.90;;;;;;5036134;28;20237;-63
2023/10/26 00:57:26;;;;;;;9.00;8.10;;;10.30;99.90;;;;;;5036359;28;20569;-63
2023/10/26 00:59:54;;;;;;;11.03;8.10;;;10.30;99.90;;;;;;5036061;28;20452;-62
2023/10/26 01:02:22;;;;;;;8.53;7.70;;;10.30;99.90;;;;;;5036204;28;20452;-63
2023/10/26 01:04:49;;;;;;;10.23;7.70;;;10.30;99.90;;;;;;5036495;28;20460;-62
2023/10/26 01:07:16;;;;;;;9.23;8.23;;;10.30;99.90;;;;;;5036421;28;20433;-62
2023/10/26 01:09:43;;;;;;;9.30;8.30;;;10.30;99.90;;;;;;5036270;28;20440;-62
2023/10/26 01:12:11;;;;;;;8.10;7.30;;;10.30;99.90;;;;;;5036183;28;20440;-62
2023/10/26 01:14:38;;;;;;;8.48;7.68;;;10.30;99.90;;;;;;5035954;28;20476;-62
2023/10/26 01:17:05;;;;;;;8.30;7.50;;;10.30;99.90;;;;;;5036093;28;20222;-62
2023/10/26 01:19:39;;;;;;;12.53;7.40;;;10.30;99.90;;;;;;5036437;28;20203;-62
2023/10/26 01:22:07;;;;;;;7.97;7.18;;;10.30;99.90;;;;;;5035814;28;20482;-62
2023/10/26 01:24:34;;;;;;;7.25;6.43;;;10.30;99.90;;;;;;5036334;28;20226;-62
2023/10/26 01:27:02;;;;;;;7.55;6.85;;;10.30;99.90;;;;;;5036804;28;20566;-62
2023/10/26 01:29:28;;;;;;;8.10;7.33;;;10.30;99.90;;;;;;5035950;28;20202;-62
2023/10/26 01:31:55;;;;;;;7.90;6.77;;;10.30;99.90;;;;;;5036078;28;20512;-62
2023/10/26 01:34:22;;;;;;;7.50;6.70;;;10.30;99.90;;;;;;5035873;28;20468;-62
2023/10/26 01:36:49;;;;;;;7.43;6.60;;;10.30;99.90;;;;;;5035856;28;20441;-63
2023/10/26 01:39:18;;;;;;;6.83;6.13;;;10.30;99.90;;;;;;5035371;28;20630;-63
2023/10/26 01:41:46;;;;;;;7.18;6.32;;;10.30;99.90;;;;;;5035963;28;20435;-63
2023/10/26 01:44:13;;;;;;;6.37;5.83;;;10.30;99.90;;;;;;5035875;28;20317;-63
2023/10/26 01:46:39;;;;;;;7.33;6.63;;;10.30;99.90;;;;;;5035765;28;20449;-62
2023/10/26 01:49:06;;;;;;;6.97;6.37;;;10.30;99.90;;;;;;5035332;28;20901;-62
2023/10/26 01:51:33;;;;;;;9.50;6.80;;;10.30;99.90;;;;;;5035512;28;20449;-62
2023/10/26 01:54:00;;;;;;;6.90;6.25;;;10.30;99.90;;;;;;5035503;28;20457;-62
2023/10/26 01:56:28;;;;;;;7.10;6.40;;;10.30;99.90;;;;;;5035341;28;20209;-63
2023/10/26 01:58:54;;;;;;;7.83;7.10;;;10.30;99.90;;;;;;5035161;28;20477;-63
2023/10/26 02:01:21;;;;;;;7.30;6.60;;;10.20;99.90;;;;;;5035560;28;20449;-63
2023/10/26 02:03:48;;;;;;;9.70;7.55;;;10.20;99.90;;;;;;5035032;28;20802;-64
2023/10/26 02:06:15;;;;;;;8.57;7.67;;;10.20;99.90;;;;;;5035302;28;20206;-63
2023/10/26 02:08:42;;;;;;;9.40;8.50;;;10.20;99.90;;;;;;5035376;28;20444;-64
2023/10/26 02:11:09;;;;;;;10.10;9.03;;;10.20;99.90;;;;;;5035061;28;20668;-63
2023/10/26 02:13:38;;;;;;;10.37;8.83;;;10.20;99.90;;;;;;5034886;28;20923;-63
2023/10/26 02:16:06;;;;;;;9.70;8.17;;;10.20;99.90;;;;;;5077067;22;20488;-62
2023/10/26 02:18:33;;;;;;;10.50;8.87;;;10.20;99.90;;;;;;5056325;28;20824;-62
2023/10/26 02:21:00;;;;;;;10.73;8.53;;;10.20;99.90;;;;;;5055337;28;20440;-63
2023/10/26 02:23:27;;;;;;;9.13;8.30;;;10.20;99.90;;;;;;5055427;28;20475;-61
2023/10/26 02:25:54;;;;;;;11.70;8.50;;;10.20;99.90;;;;;;5054768;28;20460;-62
2023/10/26 02:28:20;;;;;;;9.00;8.10;;;10.20;99.90;;;;;;5055226;28;20428;-61
2023/10/26 02:30:48;;;;;;;9.73;8.68;;;10.20;99.90;;;;;;5055185;28;20440;-62
2023/10/26 02:33:15;;;;;;;10.60;9.40;;;10.20;99.90;;;;;;5055186;28;20555;-63
2023/10/26 02:35:42;;;;;;;9.90;8.95;;;10.20;99.90;;;;;;5054801;28;20472;-62
2023/10/26 02:38:08;;;;;;;10.37;9.27;;;10.20;99.90;;;;;;5054762;28;20221;-63
2023/10/26 02:40:36;;;;;;;9.93;8.90;;;10.20;99.90;;;;;;5054904;28;20447;-62
2023/10/26 02:43:04;;;;;;;10.73;9.73;;;10.20;99.90;;;;;;5054809;28;20204;-62
2023/10/26 02:45:31;;;;;;;11.60;10.17;;;10.20;99.90;;;;;;5054793;28;20460;-63
2023/10/26 02:47:59;;;;;;;11.27;9.90;;;10.20;99.90;;;;;;5054618;28;20502;-62
2023/10/26 02:50:27;;;;;;;11.30;10.20;;;10.20;99.90;;;;;;5054292;28;20436;-62
2023/10/26 02:52:54;;;;;;;12.90;10.67;;;10.20;99.90;;;;;;5054023;28;20949;-62
2023/10/26 02:55:20;;;;;;;12.73;9.80;;;10.20;99.90;;;;;;5054545;28;20468;-63
2023/10/26 02:57:48;;;;;;;12.80;9.47;;;10.20;99.90;;;;;;5054012;28;20703;-63
2023/10/26 03:00:16;;;;;;;12.50;10.40;;;10.20;99.90;;;;;;5054543;28;20436;-62
2023/10/26 03:02:42;;;;;;;12.30;11.10;;;10.20;99.90;;;;;;5054473;28;20487;-63
2023/10/26 03:05:11;;;;;;;10.90;9.07;;;10.20;99.90;;;;;;5054572;28;20460;-63
2023/10/26 03:07:37;;;;;;;10.73;9.60;;;10.20;99.90;;;;;;5054813;28;20470;-63
2023/10/26 03:10:05;;;;;;;10.60;9.37;;;10.20;99.90;;;;;;5054801;28;20206;-63
2023/10/26 03:12:32;;;;;;;11.15;9.38;;;10.20;99.90;;;;;;5055665;28;20462;-63
2023/10/26 03:14:59;;;;;;;12.48;9.32;;;10.20;99.90;;;;;;5055878;28;20761;-61
2023/10/26 03:17:26;;;;;;;11.27;9.87;;;10.10;99.90;;;;;;5054569;28;20212;-63
2023/10/26 03:19:53;;;;;;;11.25;9.85;;;10.20;99.90;;;;;;5055718;28;20456;-63
2023/10/26 03:22:21;;;;;;;11.93;10.50;;;10.10;99.90;;;;;;5056540;28;20202;-63
2023/10/26 03:24:50;;;;;;;11.55;9.38;;;10.20;99.90;;;;;;5056600;28;20249;-62
2023/10/26 03:27:16;;;;;;;11.20;9.88;;;10.10;99.90;;;;;;5055709;28;20202;-62
2023/10/26 03:29:43;;;;;;;12.40;9.57;;;10.20;99.90;;;;;;5055231;28;20216;-63
2023/10/26 03:32:10;;;;;;;10.70;9.20;;;10.20;99.90;;;;;;5055189;28;20208;-63
2023/10/26 03:34:37;;;;;;;10.23;8.77;;;10.10;99.90;;;;;;5055033;28;20460;-62
2023/10/26 03:37:03;;;;;;;10.67;9.10;;;10.20;99.90;;;;;;5054091;28;20440;-62
2023/10/26 03:39:32;;;;;;;11.70;9.50;;;10.10;99.90;;;;;;5053688;28;20483;-62
2023/10/26 03:41:58;;;;;;;10.10;8.67;;;10.10;99.90;;;;;;5053856;28;20440;-62
2023/10/26 03:44:25;;;;;;;10.40;9.37;;;10.10;99.90;;;;;;5053638;28;20471;-63
2023/10/26 03:46:52;;;;;;;10.40;8.50;;;10.10;99.90;;;;;;5053426;28;20448;-62
2023/10/26 03:49:19;;;;;;;10.00;8.10;;;10.10;99.90;;;;;;5053502;28;20440;-63
2023/10/26 03:51:46;;;;;;;9.07;7.57;;;10.10;99.90;;;;;;5053744;28;20447;-63
2023/10/26 03:54:13;;;;;;;8.93;7.82;;;10.10;99.90;;;;;;5054289;28;20216;-64
2023/10/26 03:56:41;;;;;;;8.30;7.40;;;10.10;99.90;;;;;;5054214;28;20236;-63
2023/10/26 03:59:08;;;;;;;8.03;6.93;;;10.10;99.90;;;;;;5053406;28;20475;-63
2023/10/26 04:01:35;;;;;;;10.48;7.60;;;10.10;99.90;;;;;;5053806;28;20443;-63
2023/10/26 04:04:02;;;;;;;10.33;8.17;;;10.00;99.90;;;;;;5053108;28;20221;-63
2023/10/26 04:06:30;;;;;;;8.48;7.63;;;10.10;99.90;;;;;;5053469;28;20501;-62
2023/10/26 04:12:23;;;;;;;8.45;7.45;;;10.10;99.90;;;;;;5115486;27;1238514;-63
2023/10/26 04:14:50;;;;;;;9.20;7.83;;;10.10;99.90;;;;;;5128125;28;20223;-63
2023/10/26 04:17:16;;;;;;;7.73;6.93;;;10.10;99.90;;;;;;5119146;28;20441;-63
2023/10/26 04:19:43;;;;;;;8.37;6.90;;;10.10;99.90;;;;;;5115480;28;20438;-64
2023/10/26 04:22:10;;;;;;;10.20;7.80;;;10.20;99.90;;;;;;5115869;28;20813;-64
2023/10/26 04:24:37;;;;;;;9.80;7.53;;;10.20;99.90;;;;;;5114963;28;20450;-64
2023/10/26 04:27:04;;;;;;;9.05;7.80;;;10.10;99.90;;;;;;5114399;28;20445;-63
2023/10/26 04:29:32;;;;;;;8.67;7.20;;;10.10;99.90;;;;;;5113571;28;20203;-63
2023/10/26 04:31:59;;;;;;;8.65;6.80;;;10.10;99.90;;;;;;5112726;28;20469;-63
2023/10/26 04:34:26;;;;;;;8.83;7.40;;;10.10;99.90;;;;;;5111398;28;20220;-64
2023/10/26 04:36:52;;;;;;;9.23;7.50;;;10.10;99.90;;;;;;5111385;28;20529;-64
2023/10/26 04:39:19;;;;;;;9.17;7.40;;;10.00;99.90;;;;;;5110920;28;20439;-63
2023/10/26 04:41:46;;;;;;;10.33;7.53;;;10.00;99.90;;;;;;5111139;28;20461;-65
2023/10/26 04:44:13;;;;;;;8.90;7.13;;;10.00;99.90;;;;;;5110509;28;20442;-62
2023/10/26 04:46:41;;;;;;;10.73;8.00;;;10.00;99.90;;;;;;5110905;28;20442;-62
2023/10/26 04:49:08;;;;;;;8.77;7.63;;;10.00;99.90;;;;;;5111289;28;20449;-63
2023/10/26 04:51:35;;;;;;;9.60;7.63;;;10.00;99.90;;;;;;5116566;28;20477;-63
2023/10/26 04:54:01;;;;;;;9.30;7.32;;;10.00;99.90;;;;;;5117520;28;20448;-64
2023/10/26 04:56:28;;;;;;;7.82;6.78;;;10.00;99.90;;;;;;5116859;28;20204;-63
2023/10/26 04:58:55;;;;;;;9.07;7.30;;;10.00;99.90;;;;;;5117191;28;20196;-63
2023/10/26 05:01:22;;;;;;;8.87;7.50;;;9.90;99.90;;;;;;5117058;28;20442;-63
2023/10/26 05:03:50;;;;;;;7.83;6.57;;;9.90;99.90;;;;;;5113186;28;20437;-63
2023/10/26 05:06:17;;;;;;;7.97;6.93;;;9.90;99.90;;;;;;5111644;28;20472;-63
2023/10/26 05:08:44;;;;;;;9.73;6.83;;;9.90;99.90;;;;;;5111114;28;20438;-63
2023/10/26 05:11:11;;;;;;;9.20;6.50;;;9.90;99.90;;;;;;5111196;28;20830;-63
2023/10/26 05:13:38;;;;;;;8.40;7.20;;;9.80;99.90;;;;;;5111341;28;20560;-63
2023/10/26 05:16:05;;;;;;;9.15;7.03;;;9.90;99.90;;;;;;5110575;28;20955;-64
2023/10/26 05:18:32;;;;;;;10.90;7.05;;;9.90;99.90;;;;;;5111092;28;20203;-64
2023/10/26 05:21:00;;;;;;;8.40;6.73;;;9.90;99.90;;;;;;5111021;28;20196;-64
2023/10/26 05:23:27;;;;;;;8.90;6.82;;;9.90;99.90;;;;;;5099621;28;20495;-63
2023/10/26 05:25:54;;;;;;;7.10;6.40;;;9.90;99.90;;;;;;5097227;28;20220;-62
2023/10/26 05:28:20;;;;;;;8.03;6.83;;;9.90;99.90;;;;;;5096732;28;20434;-62
2023/10/26 05:30:47;;;;;;;9.97;7.47;;;9.90;99.90;;;;;;5096673;28;20480;-64
2023/10/26 05:33:15;;;;;;;8.90;7.90;;;9.90;99.90;;;;;;5096868;28;20438;-63
2023/10/26 05:35:41;;;;;;;9.37;7.60;;;9.90;99.90;;;;;;5096420;28;20470;-64
2023/10/26 05:38:10;;;;;;;7.60;6.87;;;9.90;99.90;;;;;;5096358;28;20449;-64
2023/10/26 05:40:37;;;;;;;7.35;5.90;;;9.90;99.90;;;;;;5096472;28;20499;-62
2023/10/26 05:43:04;;;;;;;8.33;6.70;;;9.90;99.90;;;;;;5098162;28;20199;-62
2023/10/26 05:45:37;;;;;;;6.13;5.50;;;9.90;99.90;;;;;;5099637;28;20458;-62
2023/10/26 05:48:05;;;;;;;5.33;4.67;;;9.90;99.90;;;;;;5102126;28;20423;-64
2023/10/26 05:50:32;;;;;;;6.20;5.60;;;9.90;99.90;;;;;;5100908;28;20442;-63
2023/10/26 05:52:58;;;;;;;5.37;4.87;;;9.90;99.90;;;;;;5101290;28;20453;-62
2023/10/26 05:55:26;;;;;;;5.47;4.43;;;9.90;99.90;;;;;;5100403;28;20470;-64
2023/10/26 05:57:53;;;;;;;4.97;4.50;;;9.90;99.90;;;;;;5100189;28;20445;-62
2023/10/26 06:00:20;;;;;;;4.40;4.00;;;9.90;99.90;;;;;;5100484;28;20784;-63
2023/10/26 06:02:47;;;;;;;5.47;4.97;;;9.90;99.90;;;;;;5101523;28;20790;-63
2023/10/26 06:05:13;;;;;;;6.25;4.82;;;9.80;99.90;;;;;;5100678;28;20462;-63
2023/10/26 06:07:40;;;;;;;4.80;4.33;;;9.80;99.90;;;;;;5099756;28;20200;-62
2023/10/26 06:10:09;;;;;;;5.90;5.30;;;9.80;99.90;;;;;;5099990;28;20442;-62
2023/10/26 06:12:37;;;;;;;5.43;4.83;;;9.70;99.90;;;;;;5101355;28;20543;-65
2023/10/26 06:15:04;;;;;;;5.67;4.40;;;9.70;99.90;;;;;;5100570;28;20473;-65
2023/10/26 06:17:31;;;;;;;6.47;5.75;;;9.70;99.90;;;;;;5100689;28;20439;-66
2023/10/26 06:19:58;;;;;;;6.20;4.85;;;9.80;99.90;;;;;;5101527;28;20201;-65
2023/10/26 06:22:24;;;;;;;6.10;4.90;;;9.80;99.90;;;;;;5100372;28;20201;-65
2023/10/26 06:24:51;;;;;;;7.55;5.38;;;9.80;99.90;;;;;;5096502;28;20477;-66
2023/10/26 06:27:18;;;;;;;5.80;5.10;;;9.80;99.90;;;;;;5096642;28;20571;-66
2023/10/26 06:29:46;;;;;;;5.60;4.67;;;9.80;99.90;;;;;;5096742;28;20438;-66
2023/10/26 06:32:13;;;;;;;6.30;5.50;;;9.80;99.90;;;;;;5097466;28;20555;-66
2023/10/26 06:34:39;;;;;;;4.30;3.90;;;9.80;99.90;;;;;;5097573;28;20823;-66
2023/10/26 06:37:06;;;;;;;4.30;3.90;;;9.80;99.90;;;;;;5100400;28;20439;-65
2023/10/26 06:39:33;;;;;;;5.70;4.90;;;9.80;99.90;;;;;;5098001;28;20576;-65
2023/10/26 06:42:00;;;;;;;4.40;4.00;;;9.80;99.90;;;;;;5098313;28;20446;-65
2023/10/26 06:44:26;;;;;;;5.10;4.60;;;9.80;99.90;;;;;;5098791;28;20235;-65
2023/10/26 06:46:54;;;;;;;5.30;4.80;;;9.80;99.90;;;;;;5097093;28;20453;-65
2023/10/26 06:49:21;;;;;;;5.27;4.77;;;9.80;99.90;;;;;;5097450;28;20461;-65
2023/10/26 06:51:48;;;;;;;5.70;4.60;;;9.80;99.90;;;;;;5097135;28;20478;-66
2023/10/26 06:54:15;;;;;;;5.17;4.67;;;9.80;99.90;;;;;;5098489;28;20454;-66
2023/10/26 06:56:42;;;;;;;4.55;4.15;;;9.80;99.90;;;;;;5096602;28;20431;-65
2023/10/26 06:59:09;;;;;;;5.07;4.63;;;9.80;99.90;;;;;;5097528;28;20567;-66
2023/10/26 07:01:38;;;;;;;4.75;4.35;;;9.80;99.90;;;;;;5096677;28;20534;-65
2023/10/26 07:04:06;;;;;;;4.30;3.90;;;9.80;99.90;;;;;;5095951;28;20200;-65
2023/10/26 07:06:33;;;;;;;5.40;4.67;;;9.90;99.90;;;;;;5096866;28;20461;-63
2023/10/26 07:09:00;;;;;;;4.60;4.20;;;9.90;99.90;;;;;;5096665;28;20494;-64
2023/10/26 07:11:27;;;;;;;4.60;4.20;;;9.90;99.90;;;;;;5096061;28;20624;-65
2023/10/26 07:13:53;;;;;;;4.93;3.90;;;9.90;99.90;;;;;;5095929;28;20454;-65
2023/10/26 07:16:20;;;;;;;5.57;5.07;;;9.90;99.90;;;;;;5096345;28;20458;-65
2023/10/26 07:18:47;;;;;;;4.97;4.50;;;9.90;99.90;;;;;;5096969;28;20449;-65
2023/10/26 07:21:15;;;;;;;6.10;5.50;;;10.00;99.90;;;;;;5096628;28;20462;-65
2023/10/26 07:23:41;;;;;;;5.30;4.30;;;9.90;99.90;;;;;;5096550;28;20449;-65
2023/10/26 07:26:08;;;;;;;5.60;5.10;;;10.00;99.90;;;;;;5095920;28;20466;-65
2023/10/26 07:28:35;;;;;;;5.33;4.10;;;10.00;99.90;;;;;;5096807;28;20944;-65
2023/10/26 07:31:02;;;;;;;4.85;4.15;;;10.00;99.90;;;;;;5096668;28;20473;-65
2023/10/26 07:33:28;;;;;;;4.53;4.13;;;10.00;99.90;;;;;;5095977;28;20200;-64
2023/10/26 07:35:56;;;;;;;5.17;4.63;;;10.00;99.90;;;;;;5096669;28;20455;-64
2023/10/26 07:38:25;;;;;;;5.33;4.83;;;10.00;99.90;;;;;;5097158;28;20442;-64
2023/10/26 07:40:53;;;;;;;5.03;4.53;;;10.00;99.90;;;;;;5097084;28;20928;-65
2023/10/26 07:43:20;;;;;;;4.80;3.90;;;10.10;99.90;;;;;;5097145;28;20439;-65
2023/10/26 07:45:49;;;;;;;4.47;4.07;;;10.00;99.90;;;;;;5094900;28;20817;-63
2023/10/26 07:48:16;;;;;;;4.73;3.93;;;10.10;99.90;;;;;;5095659;28;20461;-65
2023/10/26 07:50:43;;;;;;;4.68;4.25;;;10.00;99.90;;;;;;5094647;28;20481;-64
2023/10/26 07:53:10;;;;;;;4.90;4.23;;;10.10;99.90;;;;;;5094999;28;20320;-65
2023/10/26 07:55:38;;;;;;;5.15;4.63;;;10.00;99.90;;;;;;5094325;28;20466;-65
2023/10/26 07:58:05;;;;;;;4.97;4.10;;;10.00;99.90;;;;;;5094860;28;20199;-65
2023/10/26 08:00:32;;;;;;;4.97;4.57;;;10.00;99.90;;;;;;5095002;28;20438;-65
2023/10/26 08:02:58;;;;;;;6.13;4.10;;;10.00;99.90;;;;;;5094779;28;20434;-65
2023/10/26 08:05:26;;;;;;;4.77;4.33;;;10.00;99.90;;;;;;5094371;28;20569;-64
2023/10/26 08:07:53;;;;;;;5.05;4.57;;;10.00;99.90;;;;;;5095275;28;20438;-65
2023/10/26 08:10:20;;;;;;;7.80;4.80;;;10.00;99.90;;;;;;5095158;28;20204;-64
2023/10/26 08:12:50;;;;;;;6.53;5.07;;;10.10;99.90;;;;;;5095151;28;20482;-66
2023/10/26 08:15:18;;;;;;;7.00;5.07;;;10.10;99.90;;;;;;5094791;28;20532;-65
2023/10/26 08:17:45;;;;;;;6.40;5.23;;;10.10;99.90;;;;;;5095001;28;20438;-65
2023/10/26 08:20:12;;;;;;;5.13;4.63;;;10.10;99.90;;;;;;5094645;28;20446;-65
2023/10/26 08:22:39;;;;;;;5.50;5.00;;;10.10;99.90;;;;;;5095115;28;20441;-65
2023/10/26 08:25:07;;;;;;;5.13;4.63;;;10.10;99.90;;;;;;5095133;28;20603;-64
2023/10/26 08:27:35;;;;;;;5.23;4.67;;;10.10;99.90;;;;;;5095233;28;20447;-64
2023/10/26 08:30:04;;;;;;;3.97;3.67;;;10.00;99.90;;;;;;5095653;28;20442;-64
2023/10/26 08:32:31;;;;;;;6.00;4.17;;;10.00;99.90;;;;;;5095741;28;20536;-66
2023/10/26 08:34:58;;;;;;;4.27;3.87;;;10.10;99.90;;;;;;5095153;28;20466;-65
2023/10/26 08:37:25;;;;;;;4.10;3.70;;;10.10;99.90;;;;;;5095835;28;20465;-65
2023/10/26 08:39:51;;;;;;;5.00;3.87;;;10.10;99.90;;;;;;5095846;28;20443;-65
2023/10/26 08:42:19;;;;;;;4.37;3.97;;;10.10;99.90;;;;;;5094914;28;20817;-66
2023/10/26 08:44:46;;;;;;;5.13;4.20;;;10.20;99.90;;;;;;5094853;28;20462;-64
2023/10/26 08:47:17;;;;;;;5.77;5.20;;;10.10;99.90;;;;;;5095867;28;20442;-65
2023/10/26 08:49:45;;;;;;;4.90;3.70;;;10.20;99.90;;;;;;5095184;28;20422;-65
2023/10/26 08:52:11;;;;;;;4.03;3.63;;;10.20;99.90;;;;;;5094597;28;20473;-65
2023/10/26 08:54:38;;;;;;;4.60;3.53;;;10.30;99.90;;;;;;5094817;28;20892;-65
2023/10/26 08:57:08;;;;;;;4.33;3.90;;;10.30;99.90;;;;;;5095430;28;20469;-65
2023/10/26 08:59:35;;;;;;;4.13;3.70;;;10.30;99.90;;;;;;5098218;28;20438;-64
2023/10/26 09:02:02;;;;;;;4.70;3.57;;;10.30;99.90;;;;;;5097683;28;20446;-65
2023/10/26 09:04:30;;;;;;;3.07;2.83;;;10.30;99.90;;;;;;5099307;28;20824;-64
2023/10/26 09:06:56;;;;;;;3.63;3.33;;;10.30;99.90;;;;;;5098818;28;20468;-65
2023/10/26 09:09:23;;;;;;;4.20;2.73;;;10.40;99.90;;;;;;5097863;28;20970;-65
2023/10/26 09:11:50;;;;;;;2.70;2.50;;;10.40;99.90;;;;;;5097188;28;20489;-65
2023/10/26 09:14:18;;;;;;;4.17;3.27;;;10.50;99.90;;;;;;5097924;28;20509;-63
2023/10/26 09:16:46;;;;;;;3.40;3.10;;;10.50;99.90;;;;;;5097557;28;20449;-63
2023/10/26 09:19:13;;;;;;;2.67;2.47;;;10.50;99.90;;;;;;5097596;28;20468;-65
2023/10/26 09:21:51;;;;;;;2.90;2.70;;;10.50;99.90;;;;;;5097035;28;20453;-64
2023/10/26 09:24:19;;;;;;;2.70;2.50;;;10.50;99.90;;;;;;5097525;28;20465;-64
2023/10/26 09:26:46;;;;;;;2.80;2.60;;;10.50;99.90;;;;;;5097275;28;20442;-63
2023/10/26 09:29:12;;;;;;;3.07;2.77;;;10.50;99.90;;;;;;5097436;28;20453;-67
2023/10/26 09:31:52;;;;;;;3.80;3.10;;;10.50;99.90;;;;;;5097185;28;20518;-63
2023/10/26 09:34:22;;;;;;;2.50;2.30;;;10.60;99.90;;;;;;5097130;28;20516;-65
2023/10/26 09:37:01;;;;;;;2.57;2.37;;;10.60;99.90;;;;;;5097077;28;20442;-64
2023/10/26 09:39:29;;;;;;;2.63;2.27;;;10.70;99.90;;;;;;5097151;28;20867;-64
2023/10/26 09:41:57;;;;;;;2.23;2.10;;;10.70;99.90;;;;;;5096965;28;20943;-65
2023/10/26 09:44:24;;;;;;;3.60;3.30;;;10.80;99.90;;;;;;5098209;28;20462;-63
2023/10/26 09:46:51;;;;;;;3.50;3.20;;;10.70;99.90;;;;;;5098220;28;20495;-66
2023/10/26 09:49:18;;;;;;;3.90;3.53;;;10.70;99.90;;;;;;5102590;28;20783;-65
2023/10/26 09:51:46;;;;;;;3.73;3.43;;;10.80;99.90;;;;;;5104626;28;20445;-65
2023/10/26 09:54:15;;;;;;;4.63;3.67;;;10.80;99.90;;;;;;5102305;28;20456;-64
2023/10/26 09:56:47;;;;;;;3.97;3.57;;;10.90;99.90;;;;;;5103914;28;20442;-64
2023/10/26 09:59:14;;;;;;;4.10;3.70;;;10.90;99.90;;;;;;5100992;28;20418;-65
2023/10/26 10:01:41;;;;;;;3.60;3.30;;;10.90;99.90;;;;;;5106364;28;20462;-65
2023/10/26 10:04:09;;;;;;;3.80;3.23;;;11.00;99.90;;;;;;5107860;28;20434;-63
2023/10/26 10:06:48;;;;;;;3.20;3.00;;;11.00;99.90;;;;;;5104303;28;20446;-65
2023/10/26 10:09:19;;;;;;;2.80;2.40;;;11.00;99.90;;;;;;5095579;28;20439;-67
2023/10/26 10:11:46;;;;;;;3.20;2.90;;;11.00;99.90;;;;;;5096547;28;20493;-64
2023/10/26 10:14:43;;;;;;;3.57;3.27;;;11.10;99.90;;;;;;5096445;28;20485;-65
2023/10/26 10:17:09;;;;;;;5.70;3.10;;;11.00;99.90;;;;;;5095675;28;20450;-66
2023/10/26 10:19:36;;;;;;;3.93;3.57;;;11.00;99.90;;;;;;5097802;28;20441;-66
2023/10/26 10:22:04;;;;;;;3.10;2.53;;;11.10;99.90;;;;;;5096613;28;20826;-63
2023/10/26 10:24:51;;;;;;;2.80;2.60;;;11.10;99.90;;;;;;5096354;28;20458;-64
2023/10/26 10:27:18;;;;;;;5.10;4.10;;;11.00;99.90;;;;;;5096099;28;20434;-65
2023/10/26 10:29:45;;;;;;;3.53;3.23;;;11.00;99.90;;;;;;5095962;28;20435;-63
2023/10/26 10:32:12;;;;;;;3.93;3.03;;;11.00;99.90;;;;;;5095186;28;20445;-65
2023/10/26 10:34:44;;;;;;;2.80;2.43;;;11.10;99.90;;;;;;5095928;28;20465;-64
2023/10/26 10:37:17;;;;;;;5.70;2.80;;;11.10;99.90;;;;;;5095251;28;20957;-65
2023/10/26 10:40:15;;;;;;;5.63;3.10;;;11.20;99.90;;;;;;5095788;28;20812;-62
2023/10/26 10:42:48;;;;;;;2.90;2.67;;;11.20;99.90;;;;;;5014971;28;20418;-64
2023/10/26 10:45:15;;;;;;;7.53;2.90;;;11.20;99.90;;;;;;5080910;28;20562;-66
2023/10/26 10:47:43;;;;;;;3.43;3.00;;;11.20;99.90;;;;;;5096194;28;20449;-65
2023/10/26 10:50:20;;;;;;;3.60;2.80;;;11.30;99.90;;;;;;5097227;28;20438;-64
2023/10/26 10:52:48;;;;;;;2.80;2.60;;;11.30;99.90;;;;;;5100343;28;20496;-64
2023/10/26 10:55:21;;;;;;;2.57;2.37;;;11.20;99.90;;;;;;5097978;28;20466;-65
2023/10/26 10:57:55;;;;;;;3.60;3.30;;;11.20;99.90;;;;;;5096476;28;20422;-65
2023/10/26 11:00:23;;;;;;;3.60;3.30;;;11.20;99.90;;;;;;5096025;28;20536;-64
2023/10/26 11:02:52;;;;;;;3.00;2.80;;;11.20;99.90;;;;;;5095975;28;20462;-65
2023/10/26 11:05:19;;;;;;;3.67;3.30;;;11.10;99.90;;;;;;5094995;28;20468;-65
2023/10/26 11:07:47;;;;;;;4.73;3.40;;;11.10;99.90;;;;;;5095206;28;20456;-64
2023/10/26 11:10:13;;;;;;;4.53;3.60;;;11.10;99.90;;;;;;5096471;28;20534;-65
2023/10/26 11:12:50;;;;;;;3.47;3.17;;;11.00;99.90;;;;;;5095487;28;20489;-63
2023/10/26 11:15:17;;;;;;;3.60;3.30;;;11.00;99.90;;;;;;5095566;28;20841;-64
2023/10/26 11:17:45;;;;;;;3.70;3.40;;;11.00;99.90;;;;;;5095639;28;20446;-63
2023/10/26 11:20:33;;;;;;;4.00;3.20;;;11.00;99.90;;;;;;5095561;28;20441;-65
2023/10/26 11:22:59;;;;;;;5.50;3.40;;;11.00;99.90;;;;;;5094927;28;20433;-65
2023/10/26 11:25:27;;;;;;;2.83;2.63;;;10.90;99.90;;;;;;5095549;28;20454;-64
2023/10/26 11:27:55;;;;;;;2.73;2.53;;;11.00;99.90;;;;;;5094370;28;20798;-64
2023/10/26 11:30:22;;;;;;;3.03;2.73;;;11.00;99.90;;;;;;5094440;28;20438;-64
2023/10/26 11:32:48;;;;;;;3.53;3.00;;;10.90;99.90;;;;;;5095000;28;20474;-64
2023/10/26 11:35:16;;;;;;;6.27;3.10;;;10.90;99.90;;;;;;5094922;28;20466;-63
2023/10/26 11:37:44;;;;;;;2.80;2.37;;;10.90;99.90;;;;;;5095555;28;20435;-65
2023/10/26 11:40:13;;;;;;;4.47;3.43;;;10.90;99.90;;;;;;5095413;28;20453;-64
2023/10/26 11:42:50;;;;;;;5.00;3.93;;;10.90;99.90;;;;;;5095211;28;20960;-65
2023/10/26 11:45:21;;;;;;;4.20;3.80;;;10.80;99.90;;;;;;5097494;28;20465;-68
2023/10/26 11:47:50;;;;;;;4.23;3.63;;;10.80;99.90;;;;;;5103578;28;20431;-65
2023/10/26 11:50:21;;;;;;;4.17;3.77;;;10.90;99.90;;;;;;5103251;28;20438;-66
2023/10/26 11:52:48;;;;;;;4.03;3.63;;;10.90;99.90;;;;;;5101218;28;20513;-64
2023/10/26 11:55:16;;;;;;;4.20;3.90;;;10.90;99.90;;;;;;5099502;28;20466;-65
2023/10/26 11:57:43;;;;;;;4.03;3.60;;;10.90;99.90;;;;;;5098714;28;20446;-65
2023/10/26 12:00:11;;;;;;;3.90;3.50;;;11.00;99.90;;;;;;5096471;28;20447;-65
2023/10/26 12:02:40;;;;;;;4.13;3.73;;;11.00;99.90;;;;;;5094590;28;20442;-65
2023/10/26 12:05:07;;;;;;;3.70;3.40;;;11.00;99.90;;;;;;5094321;28;20484;-64
2023/10/26 12:07:34;;;;;;;4.17;3.60;;;11.00;99.90;;;;;;5095370;28;20442;-65
2023/10/26 12:10:03;;;;;;;4.07;3.73;;;11.00;99.90;;;;;;5094693;28;20438;-64
2023/10/26 12:12:29;;;;;;;5.07;4.67;;;11.00;99.90;;;;;;5094377;28;20442;-64
2023/10/26 12:14:56;;;;;;;3.63;3.33;;;10.90;99.90;;;;;;5095056;28;20473;-66
2023/10/26 12:17:23;;;;;;;3.77;3.43;;;10.90;99.90;;;;;;5094761;28;20470;-64
2023/10/26 12:19:51;;;;;;;3.50;3.20;;;10.90;99.90;;;;;;5094498;28;20438;-64
2023/10/26 12:22:19;;;;;;;4.30;3.90;;;10.90;99.90;;;;;;5094637;28;20936;-64
2023/10/26 12:24:46;;;;;;;3.57;3.20;;;10.80;99.90;;;;;;5095701;28;20508;-64
2023/10/26 12:27:16;;;;;;;4.50;4.10;;;10.90;99.90;;;;;;5094223;28;20963;-65
2023/10/26 12:29:43;;;;;;;4.00;3.60;;;10.80;99.90;;;;;;5095151;28;20442;-65
2023/10/26 12:32:09;;;;;;;3.80;3.40;;;10.90;99.90;;;;;;5094660;28;20445;-63
2023/10/26 12:34:36;;;;;;;5.47;4.00;;;10.80;99.90;;;;;;5099954;28;20516;-64
2023/10/26 12:37:05;;;;;;;6.00;4.43;;;10.90;99.90;;;;;;5099005;28;20456;-65
2023/10/26 12:39:32;;;;;;;5.03;4.47;;;10.90;99.90;;;;;;5098218;28;20954;-65
2023/10/26 12:41:59;;;;;;;3.97;3.57;;;10.90;99.90;;;;;;5099218;28;20441;-64
2023/10/26 12:44:26;;;;;;;4.30;3.50;;;10.80;99.90;;;;;;5098940;28;20454;-65
2023/10/26 12:46:53;;;;;;;4.93;4.50;;;10.80;99.90;;;;;;5098560;28;20438;-64
2023/10/26 12:49:22;;;;;;;4.10;3.70;;;10.90;99.90;;;;;;5098289;28;20446;-65
2023/10/26 12:51:49;;;;;;;6.17;3.90;;;10.90;99.90;;;;;;5098367;28;20446;-65
2023/10/26 12:54:17;;;;;;;4.70;3.67;;;11.00;99.90;;;;;;5097319;28;20470;-65